Adamant, VT

6:33 AM EDT on April 27, 2015 (GMT -0400)
Long Meadow Hill | | Change Station
CLOSE
Current Station
Personal Weather Station
Location: Calais, VT
Elevation: 1437 ft
Nearby Weather Stations

Elev 1437 ft 44.34 °N, 72.53 °W | Updated 22 seconds ago

Overcast
Overcast
37.5 °F
Feels Like 38 °F
N
0.0
Wind Variable Wind from WNW
Gusts 0.0 mph

Today
High -- | Low -- °F
--% Chance of Precip.
Yesterday
High -- | Low -- °F
Precip. -- in
5:47 AM 7:48 PM
Waxing Gibbous, 64% visible
Pressure 29.69 in
Visibility 10.0 miles
Clouds Few 800 ft
Overcast 1700 ft
Windchill 38 °F
Dew Point 26 °F
Humidity 60%
Rainfall 0.00 in
Snow Depth Not available.
UV 0 out of 12
Pollen 8.40 out of 12
Air Quality Not available.
Flu Activity Regional
METAR KMPV 270951Z AUTO 31006KT 10SM FEW008 OVC017 04/03 A2967 RMK AO2 RAE11B25E37 SLP054 P0000 T00440028

More Conditions Fewer Conditions

Pressure 29.69 in
Visibility 10.0 miles
Clouds Few 800 ft
Overcast 1700 ft
Windchill 38 °F
Dew Point 26 °F
Humidity 60%
Rainfall 0.00 in
Snow Depth Not available.
UV 0 out of 12
Pollen 8.40 out of 12
Air Quality Not available.
Flu Activity Regional
METAR KMPV 270951Z AUTO 31006KT 10SM FEW008 OVC017 04/03 A2967 RMK AO2 RAE11B25E37 SLP054 P0000 T00440028

More Conditions Fewer Conditions

10-Day Weather Forecast

Almanac

Astronomy

Apr. 27, 2015 Rise Set
Actual Time
Civil Twilight
Nautical Twilight
Astronomical Twilight
Moon
Length of Visible Light
Length of Day
Tomorrow will be .
, % of the Moon is Illuminated

Today's Extremes

State Highs State Lows

Community

WunderPhotos

Upload Photos

1,817,278 photos uploaded!

WunderBlogs® & News

Nearby

Air Quality

  Air Quality AQ Index Pollutant
Not available.

Snow Depth

Station Depth Elevation

Earthquake Activity

City Distance Mag. Time & Date
Minimum magnitude displayed is 2.5.

Coastal Water Temperatures

Place Temperature

Stations

Nearby Weather Stations

Station Location Temp. Windchill Dew Point Humidity Wind Precip. Elev Updated Type